Time;durP1;ratioP1;P1;durP2;ratioP2;P2;SDS_P1;SDS_P2;PMS_P1;PMS_P2;Temp;Humidity;BMP_temperature;BMP_pressure;BME280_temperature;BME280_humidity;BME280_pressure;Samples;Min_cycle;Max_cycle;Signal;HPM_P1;HPM_P2
2024/04/10 00:00:55;;;;;;;0.10;0.10;;;;;;;;;;7397389;19;20604;-54
2024/04/10 00:03:22;;;;;;;0.10;0.10;;;;;;;;;;7399448;19;20138;-54
2024/04/10 00:05:58;;;;;;;0.10;0.10;;;;;;;;;;7398578;19;20543;-54
2024/04/10 00:08:24;;;;;;;0.00;0.00;;;;;;;;;;7398297;19;20142;-54
2024/04/10 00:10:50;;;;;;;0.10;0.10;;;;;;;;;;7398665;19;20594;-55
2024/04/10 00:13:16;;;;;;;0.00;0.00;;;;;;;;;;7398718;19;20601;-54
2024/04/10 00:15:42;;;;;;;0.00;0.00;;;;;;;;;;7398530;19;20136;-54
2024/04/10 00:18:08;;;;;;;0.00;0.00;;;;;;;;;;7398954;19;20174;-54
2024/04/10 00:20:36;;;;;;;0.10;0.10;;;;;;;;;;7398235;19;20142;-54
2024/04/10 00:23:05;;;;;;;0.10;0.10;;;;;;;;;;7398302;19;20141;-55
2024/04/10 00:25:34;;;;;;;0.10;0.10;;;;;;;;;;7398550;19;20481;-54
2024/04/10 00:28:00;;;;;;;0.10;0.10;;;;;;;;;;7397014;19;20217;-54
2024/04/10 00:30:26;;;;;;;0.10;0.10;;;;;;;;;;7396118;19;20769;-54
2024/04/10 00:32:53;;;;;;;0.10;0.10;;;;;;;;;;7398005;19;20210;-54
2024/04/10 00:35:19;;;;;;;0.10;0.10;;;;;;;;;;7397814;19;20596;-56
2024/04/10 00:37:45;;;;;;;0.00;0.00;;;;;;;;;;7397719;19;20138;-56
2024/04/10 00:40:11;;;;;;;0.00;0.00;;;;;;;;;;7398164;19;20152;-57
2024/04/10 00:42:37;;;;;;;0.10;0.10;;;;;;;;;;7397794;19;20523;-55
2024/04/10 00:45:04;;;;;;;0.00;0.00;;;;;;;;;;7397575;19;20605;-56
2024/04/10 00:47:30;;;;;;;0.10;0.10;;;;;;;;;;7396741;19;20192;-55
2024/04/10 00:49:56;;;;;;;0.00;0.00;;;;;;;;;;7396264;19;20142;-55
2024/04/10 00:52:23;;;;;;;0.00;0.00;;;;;;;;;;7397177;19;20610;-54
2024/04/10 00:54:49;;;;;;;0.03;0.03;;;;;;;;;;7397215;19;20493;-54
2024/04/10 00:57:15;;;;;;;0.10;0.10;;;;;;;;;;7397262;19;20614;-54
2024/04/10 00:59:42;;;;;;;0.00;0.00;;;;;;;;;;7397073;19;20130;-54
2024/04/10 01:02:08;;;;;;;0.10;0.10;;;;;;;;;;7397143;19;20221;-54
2024/04/10 01:04:34;;;;;;;0.00;0.00;;;;;;;;;;7397052;19;20134;-53
2024/04/10 01:07:00;;;;;;;0.10;0.10;;;;;;;;;;7396880;19;20169;-54
2024/04/10 01:09:26;;;;;;;0.00;0.00;;;;;;;;;;7394903;19;20629;-54
2024/04/10 01:11:52;;;;;;;0.10;0.10;;;;;;;;;;7395552;19;20163;-54
2024/04/10 01:14:18;;;;;;;0.10;0.10;;;;;;;;;;7397455;19;20162;-53
2024/04/10 01:16:44;;;;;;;0.10;0.10;;;;;;;;;;7396976;19;20142;-55
2024/04/10 01:19:10;;;;;;;0.10;0.10;;;;;;;;;;7396754;19;20688;-54
2024/04/10 01:21:36;;;;;;;0.10;0.10;;;;;;;;;;7396297;19;20138;-55
2024/04/10 01:24:02;;;;;;;0.00;0.00;;;;;;;;;;7396428;19;20154;-54
2024/04/10 01:26:28;;;;;;;0.10;0.10;;;;;;;;;;7396734;19;20134;-53
2024/04/10 01:28:54;;;;;;;0.10;0.10;;;;;;;;;;7395617;19;20459;-54
2024/04/10 01:31:20;;;;;;;0.00;0.00;;;;;;;;;;7396220;19;20130;-54
2024/04/10 01:33:46;;;;;;;0.10;0.10;;;;;;;;;;7396111;19;20508;-54
2024/04/10 01:36:12;;;;;;;0.00;0.00;;;;;;;;;;7396074;19;20605;-54
2024/04/10 01:38:40;;;;;;;0.10;0.10;;;;;;;;;;7395870;19;20146;-54
2024/04/10 01:41:07;;;;;;;0.10;0.10;;;;;;;;;;7395733;19;20490;-54
2024/04/10 01:43:33;;;;;;;0.00;0.00;;;;;;;;;;7395390;19;20138;-54
2024/04/10 01:45:59;;;;;;;0.10;0.10;;;;;;;;;;7395644;19;20141;-53
2024/04/10 01:48:25;;;;;;;0.10;0.10;;;;;;;;;;7394317;19;20256;-53
2024/04/10 01:50:51;;;;;;;0.10;0.10;;;;;;;;;;7395884;19;20137;-54
2024/04/10 01:53:17;;;;;;;0.10;0.10;;;;;;;;;;7395742;19;20173;-54
2024/04/10 01:55:43;;;;;;;0.10;0.10;;;;;;;;;;7395445;19;20559;-54
2024/04/10 01:58:09;;;;;;;0.10;0.10;;;;;;;;;;7395403;19;20612;-53
2024/04/10 02:00:36;;;;;;;0.00;0.00;;;;;;;;;;7395242;19;20138;-53
2024/04/10 02:03:02;;;;;;;0.10;0.10;;;;;;;;;;7395583;19;20148;-53
2024/04/10 02:05:28;;;;;;;0.10;0.10;;;;;;;;;;7395478;19;20137;-53
2024/04/10 02:07:54;;;;;;;0.03;0.03;;;;;;;;;;7394994;19;20626;-55
2024/04/10 02:10:21;;;;;;;0.10;0.10;;;;;;;;;;7393518;19;20597;-52
2024/04/10 02:12:47;;;;;;;0.10;0.10;;;;;;;;;;7394985;19;20193;-56
2024/04/10 02:15:13;;;;;;;0.10;0.10;;;;;;;;;;7395335;19;20138;-53
2024/04/10 02:17:39;;;;;;;0.00;0.00;;;;;;;;;;7393298;19;20169;-54
2024/04/10 02:20:07;;;;;;;0.10;0.10;;;;;;;;;;7395068;19;20134;-54
2024/04/10 02:22:33;;;;;;;0.10;0.10;;;;;;;;;;7400351;19;20146;-54
2024/04/10 02:24:59;;;;;;;0.10;0.10;;;;;;;;;;7402274;19;20586;-53
2024/04/10 02:27:25;;;;;;;0.10;0.10;;;;;;;;;;7402476;19;20142;-53
2024/04/10 02:29:51;;;;;;;0.00;0.00;;;;;;;;;;7400284;19;20134;-54
2024/04/10 02:32:17;;;;;;;0.00;0.00;;;;;;;;;;7402078;19;20548;-54
2024/04/10 02:34:44;;;;;;;0.10;0.10;;;;;;;;;;7402203;19;20134;-54
2024/04/10 02:37:10;;;;;;;0.10;0.10;;;;;;;;;;7401886;19;20138;-54
2024/04/10 02:39:38;;;;;;;0.10;0.10;;;;;;;;;;7401646;19;20126;-54
2024/04/10 02:42:04;;;;;;;0.00;0.00;;;;;;;;;;7402219;19;20492;-54
2024/04/10 02:44:30;;;;;;;0.00;0.00;;;;;;;;;;7401868;19;20615;-54
2024/04/10 02:46:56;;;;;;;0.10;0.10;;;;;;;;;;7401347;19;20137;-53
2024/04/10 02:49:22;;;;;;;0.10;0.10;;;;;;;;;;7398916;19;20505;-54
2024/04/10 02:51:48;;;;;;;0.03;0.03;;;;;;;;;;7401649;19;20137;-54
2024/04/10 02:54:14;;;;;;;0.10;0.10;;;;;;;;;;7401152;19;20133;-53
2024/04/10 02:56:40;;;;;;;0.10;0.10;;;;;;;;;;7401632;19;20485;-53
2024/04/10 02:59:07;;;;;;;0.10;0.10;;;;;;;;;;7401084;19;20126;-54
2024/04/10 03:01:34;;;;;;;0.10;0.10;;;;;;;;;;7400050;19;20203;-54
2024/04/10 03:04:01;;;;;;;0.10;0.10;;;;;;;;;;7401361;19;20159;-54
2024/04/10 03:06:27;;;;;;;0.10;0.10;;;;;;;;;;7400956;19;20600;-55
2024/04/10 03:08:53;;;;;;;0.10;0.10;;;;;;;;;;7400249;19;20218;-55
2024/04/10 03:11:19;;;;;;;0.10;0.10;;;;;;;;;;7401198;19;20134;-54
2024/04/10 03:13:45;;;;;;;0.10;0.10;;;;;;;;;;7401077;19;20504;-54
2024/04/10 03:16:11;;;;;;;0.17;0.17;;;;;;;;;;7401021;19;20146;-54
2024/04/10 03:18:37;;;;;;;0.10;0.10;;;;;;;;;;7401122;19;20197;-53
2024/04/10 03:21:03;;;;;;;0.10;0.10;;;;;;;;;;7400349;19;20134;-53
2024/04/10 03:23:30;;;;;;;0.20;0.20;;;;;;;;;;7400178;19;20544;-54
2024/04/10 03:26:01;;;;;;;0.10;0.10;;;;;;;;;;7400173;19;20134;-55
2024/04/10 03:28:27;;;;;;;0.10;0.10;;;;;;;;;;7400648;19;20126;-54
2024/04/10 03:30:53;;;;;;;0.20;0.20;;;;;;;;;;7400174;19;20143;-53
2024/04/10 03:33:20;;;;;;;0.17;0.17;;;;;;;;;;7398240;19;20590;-54
2024/04/10 03:35:46;;;;;;;0.10;0.10;;;;;;;;;;7400291;19;20138;-54
2024/04/10 03:38:12;;;;;;;0.20;0.20;;;;;;;;;;7399991;19;20142;-54
2024/04/10 03:40:38;;;;;;;0.10;0.10;;;;;;;;;;7399570;19;20142;-53
2024/04/10 03:43:04;;;;;;;0.10;0.10;;;;;;;;;;7399772;19;20459;-52
2024/04/10 03:45:30;;;;;;;0.17;0.17;;;;;;;;;;7399483;19;20147;-52
2024/04/10 03:47:56;;;;;;;0.10;0.10;;;;;;;;;;7398454;19;20184;-55
2024/04/10 03:50:23;;;;;;;0.10;0.10;;;;;;;;;;7396865;19;20134;-53
2024/04/10 03:52:49;;;;;;;0.00;0.00;;;;;;;;;;7399314;19;20609;-54
2024/04/10 03:55:15;;;;;;;0.10;0.10;;;;;;;;;;7399065;19;20217;-54
2024/04/10 03:57:41;;;;;;;0.20;0.20;;;;;;;;;;7398882;19;20134;-53
2024/04/10 04:00:07;;;;;;;0.10;0.10;;;;;;;;;;7399506;19;20141;-53
2024/04/10 04:02:34;;;;;;;0.17;0.17;;;;;;;;;;7397969;19;20521;-53
2024/04/10 04:05:00;;;;;;;0.10;0.10;;;;;;;;;;7399410;19;20142;-55
2024/04/10 04:07:29;;;;;;;0.10;0.10;;;;;;;;;;7397497;19;20141;-52
2024/04/10 04:09:55;;;;;;;0.10;0.10;;;;;;;;;;7396894;19;20606;-53
2024/04/10 04:12:21;;;;;;;0.10;0.10;;;;;;;;;;7399023;19;20134;-55
2024/04/10 04:14:47;;;;;;;0.10;0.10;;;;;;;;;;7398794;19;20142;-53
2024/04/10 04:17:13;;;;;;;0.10;0.10;;;;;;;;;;7398538;19;20171;-54
2024/04/10 04:19:41;;;;;;;0.10;0.10;;;;;;;;;;7398304;19;20134;-53
2024/04/10 04:22:07;;;;;;;0.03;0.03;;;;;;;;;;7398392;19;20623;-53
2024/04/10 04:24:33;;;;;;;0.10;0.10;;;;;;;;;;7398204;19;20146;-55
2024/04/10 04:26:59;;;;;;;0.10;0.10;;;;;;;;;;7398058;19;20483;-53
2024/04/10 04:29:25;;;;;;;0.20;0.20;;;;;;;;;;7397677;19;20138;-53
2024/04/10 04:31:51;;;;;;;0.20;0.20;;;;;;;;;;7397926;19;20236;-53
2024/04/10 04:34:18;;;;;;;0.13;0.13;;;;;;;;;;7398136;19;20157;-53
2024/04/10 04:36:44;;;;;;;0.10;0.10;;;;;;;;;;7397813;19;20138;-53
2024/04/10 04:39:13;;;;;;;0.03;0.03;;;;;;;;;;7397646;19;20134;-53
2024/04/10 04:41:39;;;;;;;0.10;0.10;;;;;;;;;;7397924;19;20149;-52
2024/04/10 04:44:05;;;;;;;0.10;0.10;;;;;;;;;;7396207;19;20145;-54
2024/04/10 04:46:31;;;;;;;0.10;0.10;;;;;;;;;;7397821;19;20145;-55
2024/04/10 04:48:57;;;;;;;0.10;0.10;;;;;;;;;;7395763;19;20185;-53
2024/04/10 04:51:23;;;;;;;0.10;0.10;;;;;;;;;;7397668;19;20149;-52
2024/04/10 04:53:49;;;;;;;0.10;0.10;;;;;;;;;;7396747;19;20619;-52
2024/04/10 04:56:15;;;;;;;0.10;0.10;;;;;;;;;;7397578;19;20150;-53
2024/04/10 04:58:41;;;;;;;0.10;0.10;;;;;;;;;;7395639;19;20146;-54
2024/04/10 05:01:07;;;;;;;0.00;0.00;;;;;;;;;;7395539;19;20142;-53
2024/04/10 05:06:18;;;;;;;0.13;0.13;;;;;;;;;;7396886;19;20140;-54
2024/04/10 05:08:44;;;;;;;0.10;0.10;;;;;;;;;;7395282;19;20142;-54
2024/04/10 05:11:10;;;;;;;0.10;0.10;;;;;;;;;;7396627;19;20623;-53
2024/04/10 05:13:36;;;;;;;0.10;0.10;;;;;;;;;;7396537;19;20153;-54
2024/04/10 05:16:03;;;;;;;0.10;0.10;;;;;;;;;;7396241;19;20134;-53
2024/04/10 05:18:29;;;;;;;0.00;0.00;;;;;;;;;;7395372;19;20177;-53
2024/04/10 05:20:55;;;;;;;0.10;0.10;;;;;;;;;;7396107;19;20458;-53
2024/04/10 05:23:21;;;;;;;0.03;0.03;;;;;;;;;;7396132;19;20190;-52
2024/04/10 05:25:49;;;;;;;0.20;0.20;;;;;;;;;;7395861;19;20167;-54
2024/04/10 05:28:15;;;;;;;0.10;0.10;;;;;;;;;;7396182;19;20140;-52
2024/04/10 05:30:41;;;;;;;0.10;0.10;;;;;;;;;;7394030;19;20134;-55
2024/04/10 05:33:07;;;;;;;0.10;0.10;;;;;;;;;;7396348;19;20145;-55
2024/04/10 05:35:33;;;;;;;0.00;0.00;;;;;;;;;;7394627;19;20134;-52
2024/04/10 05:37:59;;;;;;;0.07;0.07;;;;;;;;;;7395604;19;20134;-53
2024/04/10 05:40:25;;;;;;;0.10;0.10;;;;;;;;;;7395511;19;20165;-52
2024/04/10 05:42:51;;;;;;;0.00;0.00;;;;;;;;;;7394293;19;20146;-53
2024/04/10 05:45:18;;;;;;;0.10;0.10;;;;;;;;;;7395392;19;20145;-54
2024/04/10 05:47:51;;;;;;;0.10;0.10;;;;;;;;;;7395037;19;20197;-53
2024/04/10 05:50:17;;;;;;;0.00;0.00;;;;;;;;;;7393150;19;20149;-54
2024/04/10 05:52:43;;;;;;;0.10;0.10;;;;;;;;;;7395559;19;20197;-53
2024/04/10 05:55:10;;;;;;;0.10;0.10;;;;;;;;;;7394202;19;20598;-55
2024/04/10 05:57:36;;;;;;;0.10;0.10;;;;;;;;;;7393802;19;20201;-54
2024/04/10 06:00:03;;;;;;;0.10;0.10;;;;;;;;;;7394999;19;20487;-53
2024/04/10 06:02:30;;;;;;;0.10;0.10;;;;;;;;;;7394077;19;20146;-53
2024/04/10 06:04:57;;;;;;;0.10;0.10;;;;;;;;;;7395130;19;20489;-52
2024/04/10 06:07:23;;;;;;;0.10;0.10;;;;;;;;;;7394373;19;20601;-53
2024/04/10 06:09:56;;;;;;;0.10;0.10;;;;;;;;;;7393562;19;20138;-53
2024/04/10 06:12:22;;;;;;;0.00;0.00;;;;;;;;;;7394214;19;20138;-53
2024/04/10 06:14:54;;;;;;;0.00;0.00;;;;;;;;;;7394447;19;20146;-54
2024/04/10 06:17:21;;;;;;;0.10;0.10;;;;;;;;;;7393553;19;20517;-53
2024/04/10 06:19:50;;;;;;;0.10;0.10;;;;;;;;;;7394400;19;20544;-54
2024/04/10 06:22:16;;;;;;;0.00;0.00;;;;;;;;;;7392740;19;20148;-52
2024/04/10 06:24:43;;;;;;;0.00;0.00;;;;;;;;;;7392825;19;20222;-54
2024/04/10 06:27:09;;;;;;;0.00;0.00;;;;;;;;;;7394149;19;20138;-52
2024/04/10 06:29:35;;;;;;;0.10;0.10;;;;;;;;;;7392702;19;20134;-51
2024/04/10 06:32:01;;;;;;;0.10;0.10;;;;;;;;;;7391881;19;20569;-52
2024/04/10 06:34:27;;;;;;;0.10;0.10;;;;;;;;;;7393031;19;20591;-53
2024/04/10 06:36:53;;;;;;;0.10;0.10;;;;;;;;;;7392741;19;20473;-52
2024/04/10 06:39:20;;;;;;;0.10;0.10;;;;;;;;;;7392273;19;20218;-53
2024/04/10 06:41:46;;;;;;;0.10;0.10;;;;;;;;;;7391639;19;20157;-52
2024/04/10 06:44:12;;;;;;;0.10;0.10;;;;;;;;;;7392135;19;20139;-51
2024/04/10 06:46:38;;;;;;;0.10;0.10;;;;;;;;;;7393403;19;20145;-52
2024/04/10 06:49:04;;;;;;;0.10;0.10;;;;;;;;;;7390671;19;20219;-54
2024/04/10 06:51:30;;;;;;;0.10;0.10;;;;;;;;;;7392576;19;20182;-53
2024/04/10 06:53:56;;;;;;;0.10;0.10;;;;;;;;;;7392245;19;20589;-52
2024/04/10 06:56:23;;;;;;;0.00;0.00;;;;;;;;;;7391798;19;20609;-52
2024/04/10 06:58:49;;;;;;;0.10;0.10;;;;;;;;;;7391639;19;20235;-54
2024/04/10 07:01:15;;;;;;;0.00;0.00;;;;;;;;;;7390362;19;20138;-51
2024/04/10 07:03:41;;;;;;;0.00;0.00;;;;;;;;;;7391605;19;20135;-51
2024/04/10 07:06:14;;;;;;;0.00;0.00;;;;;;;;;;7391369;19;20470;-54
2024/04/10 07:08:41;;;;;;;0.10;0.10;;;;;;;;;;7392592;19;20147;-51
2024/04/10 07:11:09;;;;;;;0.10;0.10;;;;;;;;;;7399200;19;20154;-51
2024/04/10 07:13:35;;;;;;;0.00;0.00;;;;;;;;;;7397555;19;20508;-52
2024/04/10 07:16:05;;;;;;;0.10;0.10;;;;;;;;;;7398905;19;20142;-53
2024/04/10 07:18:32;;;;;;;0.03;0.03;;;;;;;;;;7399384;19;20150;-52
2024/04/10 07:21:05;;;;;;;0.10;0.10;;;;;;;;;;7398444;19;20134;-52
2024/04/10 07:23:31;;;;;;;0.10;0.10;;;;;;;;;;7399162;19;20149;-53
2024/04/10 07:26:09;;;;;;;0.10;0.10;;;;;;;;;;7399848;19;20161;-52
2024/04/10 07:28:35;;;;;;;0.00;0.00;;;;;;;;;;7398215;19;20154;-52
2024/04/10 07:31:02;;;;;;;0.10;0.10;;;;;;;;;;7397272;19;20154;-51
2024/04/10 07:33:28;;;;;;;0.03;0.03;;;;;;;;;;7398590;19;20142;-52
2024/04/10 07:35:54;;;;;;;0.00;0.00;;;;;;;;;;7397283;19;20621;-52
2024/04/10 07:38:20;;;;;;;0.00;0.00;;;;;;;;;;7398484;19;20158;-53
2024/04/10 07:40:52;;;;;;;0.10;0.10;;;;;;;;;;7398869;19;20156;-53
2024/04/10 07:43:18;;;;;;;0.10;0.10;;;;;;;;;;7399007;19;20553;-53
2024/04/10 07:45:44;;;;;;;0.07;0.07;;;;;;;;;;7398050;19;20138;-54
2024/04/10 07:48:10;;;;;;;0.00;0.00;;;;;;;;;;7397108;19;20196;-55
2024/04/10 07:50:36;;;;;;;0.00;0.00;;;;;;;;;;7394293;19;20142;-52
2024/04/10 07:53:03;;;;;;;0.00;0.00;;;;;;;;;;7396401;19;20159;-52
2024/04/10 07:55:29;;;;;;;0.00;0.00;;;;;;;;;;7397724;19;20138;-52
2024/04/10 07:57:58;;;;;;;0.00;0.00;;;;;;;;;;7398196;19;20130;-52
2024/04/10 08:00:24;;;;;;;0.10;0.10;;;;;;;;;;7398789;19;20141;-52
2024/04/10 08:02:50;;;;;;;0.00;0.00;;;;;;;;;;7396555;19;20153;-52
2024/04/10 08:05:16;;;;;;;0.00;0.00;;;;;;;;;;7398295;19;20179;-51
2024/04/10 08:07:43;;;;;;;0.00;0.00;;;;;;;;;;7398342;19;20142;-51
2024/04/10 08:10:09;;;;;;;0.07;0.07;;;;;;;;;;7396701;19;20469;-50
2024/04/10 08:12:35;;;;;;;0.00;0.00;;;;;;;;;;7396375;19;20146;-52
2024/04/10 08:15:02;;;;;;;0.00;0.00;;;;;;;;;;7397261;19;20138;-51
2024/04/10 08:17:28;;;;;;;0.00;0.00;;;;;;;;;;7396759;19;20146;-51
2024/04/10 08:19:54;;;;;;;0.00;0.00;;;;;;;;;;7395240;19;20126;-53
2024/04/10 08:22:20;;;;;;;0.00;0.00;;;;;;;;;;7396669;19;20142;-51
2024/04/10 08:24:46;;;;;;;0.00;0.00;;;;;;;;;;7397218;19;20147;-51
2024/04/10 08:27:12;;;;;;;0.10;0.10;;;;;;;;;;7397205;19;20138;-51
2024/04/10 08:29:39;;;;;;;0.00;0.00;;;;;;;;;;7394493;19;20133;-52
2024/04/10 08:32:05;;;;;;;0.10;0.10;;;;;;;;;;7395902;19;20127;-53
2024/04/10 08:34:31;;;;;;;0.10;0.10;;;;;;;;;;7396579;19;20617;-51
2024/04/10 08:36:57;;;;;;;0.00;0.00;;;;;;;;;;7395974;19;20134;-51
2024/04/10 08:39:23;;;;;;;0.00;0.00;;;;;;;;;;7397890;19;20172;-52
2024/04/10 08:41:49;;;;;;;0.00;0.00;;;;;;;;;;7397457;19;20138;-52
2024/04/10 08:44:19;;;;;;;0.03;0.03;;;;;;;;;;7395516;19;20560;-51
2024/04/10 08:46:48;;;;;;;0.00;0.00;;;;;;;;;;7395935;19;20147;-51
2024/04/10 08:49:15;;;;;;;0.00;0.00;;;;;;;;;;7394703;19;20196;-52
2024/04/10 08:51:42;;;;;;;0.00;0.00;;;;;;;;;;7396702;19;20161;-52
2024/04/10 08:54:08;;;;;;;0.10;0.10;;;;;;;;;;7396696;19;20134;-52
2024/04/10 08:56:34;;;;;;;0.00;0.00;;;;;;;;;;7396203;19;20593;-52
2024/04/10 08:59:00;;;;;;;0.00;0.00;;;;;;;;;;7396155;19;20125;-52
2024/04/10 09:01:33;;;;;;;0.00;0.00;;;;;;;;;;7396814;19;20134;-51
2024/04/10 09:04:09;;;;;;;0.00;0.00;;;;;;;;;;7396246;19;20586;-53
2024/04/10 09:06:35;;;;;;;0.00;0.00;;;;;;;;;;7396486;19;20133;-54
2024/04/10 09:09:08;;;;;;;0.00;0.00;;;;;;;;;;7395559;19;20142;-53
2024/04/10 09:11:34;;;;;;;0.00;0.00;;;;;;;;;;7396445;19;20134;-53
2024/04/10 09:14:00;;;;;;;0.00;0.00;;;;;;;;;;7395916;19;20130;-51
2024/04/10 09:16:27;;;;;;;0.00;0.00;;;;;;;;;;7395461;19;20590;-51
2024/04/10 09:18:53;;;;;;;0.00;0.00;;;;;;;;;;7395279;19;20145;-52
2024/04/10 09:21:19;;;;;;;0.00;0.00;;;;;;;;;;7396042;19;20149;-52
2024/04/10 09:23:45;;;;;;;0.00;0.00;;;;;;;;;;7396088;19;20142;-51
2024/04/10 09:26:17;;;;;;;0.00;0.00;;;;;;;;;;7395415;19;20130;-53
2024/04/10 09:28:44;;;;;;;0.00;0.00;;;;;;;;;;7393255;19;20150;-52
2024/04/10 09:31:21;;;;;;;0.00;0.00;;;;;;;;;;7394028;19;20138;-51
2024/04/10 09:33:49;;;;;;;0.00;0.00;;;;;;;;;;7395641;19;20130;-53
2024/04/10 09:36:16;;;;;;;0.10;0.10;;;;;;;;;;7395032;19;20161;-52
2024/04/10 09:38:42;;;;;;;0.00;0.00;;;;;;;;;;7394698;19;20134;-53
2024/04/10 09:41:08;;;;;;;0.00;0.00;;;;;;;;;;7395338;19;20145;-53
2024/04/10 09:43:36;;;;;;;0.00;0.00;;;;;;;;;;7393816;19;20150;-53
2024/04/10 09:46:03;;;;;;;0.00;0.00;;;;;;;;;;7394652;19;20213;-53
2024/04/10 09:48:33;;;;;;;0.00;0.00;;;;;;;;;;7392033;19;20193;-53
2024/04/10 09:51:02;;;;;;;0.00;0.00;;;;;;;;;;7394319;19;20619;-52
2024/04/10 09:53:29;;;;;;;0.00;0.00;;;;;;;;;;7391474;19;20166;-53
2024/04/10 09:55:56;;;;;;;0.00;0.00;;;;;;;;;;7394776;19;20492;-52
2024/04/10 09:58:22;;;;;;;0.00;0.00;;;;;;;;;;7394867;19;20229;-53
2024/04/10 10:00:48;;;;;;;0.00;0.00;;;;;;;;;;7394434;19;20134;-53
2024/04/10 10:03:23;;;;;;;0.00;0.00;;;;;;;;;;7393529;19;20133;-53
2024/04/10 10:05:49;;;;;;;0.00;0.00;;;;;;;;;;7394580;19;20141;-53
2024/04/10 10:08:17;;;;;;;0.00;0.00;;;;;;;;;;7394675;19;20150;-55
2024/04/10 10:10:46;;;;;;;0.00;0.00;;;;;;;;;;7392964;19;20167;-53
2024/04/10 10:13:13;;;;;;;0.00;0.00;;;;;;;;;;7393795;19;20138;-52
2024/04/10 10:15:40;;;;;;;0.00;0.00;;;;;;;;;;7393439;19;20150;-53
2024/04/10 10:18:06;;;;;;;0.00;0.00;;;;;;;;;;7394823;19;20174;-56
2024/04/10 10:20:33;;;;;;;0.00;0.00;;;;;;;;;;7394124;19;20145;-53
2024/04/10 10:22:59;;;;;;;0.00;0.00;;;;;;;;;;7393726;19;20138;-53
2024/04/10 10:25:27;;;;;;;0.00;0.00;;;;;;;;;;7394254;19;20488;-54
2024/04/10 10:28:11;;;;;;;0.00;0.00;;;;;;;;;;7392629;19;20176;-54
2024/04/10 10:30:39;;;;;;;0.00;0.00;;;;;;;;;;7390952;19;20142;-54
2024/04/10 10:33:05;;;;;;;0.00;0.00;;;;;;;;;;7394434;19;20141;-53
2024/04/10 10:35:32;;;;;;;0.00;0.00;;;;;;;;;;7393634;19;20134;-53
2024/04/10 10:38:04;;;;;;;0.00;0.00;;;;;;;;;;7393201;19;20145;-54
2024/04/10 10:40:31;;;;;;;0.00;0.00;;;;;;;;;;7393165;19;20485;-53
2024/04/10 10:43:02;;;;;;;0.00;0.00;;;;;;;;;;7394757;19;20558;-53
2024/04/10 10:45:28;;;;;;;0.00;0.00;;;;;;;;;;7399854;19;20150;-53
2024/04/10 10:47:54;;;;;;;0.00;0.00;;;;;;;;;;7397698;19;20572;-54
2024/04/10 10:50:21;;;;;;;0.00;0.00;;;;;;;;;;7396924;19;20201;-51
2024/04/10 10:52:50;;;;;;;0.00;0.00;;;;;;;;;;7400724;19;20149;-53
2024/04/10 10:55:16;;;;;;;0.00;0.00;;;;;;;;;;7401013;19;20141;-54
2024/04/10 10:57:42;;;;;;;0.00;0.00;;;;;;;;;;7398901;19;20167;-51
2024/04/10 11:00:29;;;;;;;0.00;0.00;;;;;;;;;;7399053;19;20522;-52
2024/04/10 11:02:55;;;;;;;0.00;0.00;;;;;;;;;;7400664;19;20281;-48
2024/04/10 11:05:23;;;;;;;0.00;0.00;;;;;;;;;;7400118;19;20480;-52
2024/04/10 11:07:58;;;;;;;0.00;0.00;;;;;;;;;;7400002;19;20201;-52
2024/04/10 11:10:25;;;;;;;0.00;0.00;;;;;;;;;;7398596;19;20145;-48
2024/04/10 11:13:07;;;;;;;0.00;0.00;;;;;;;;;;7399915;19;20508;-49
2024/04/10 11:15:39;;;;;;;0.00;0.00;;;;;;;;;;7399963;19;20145;-48
2024/04/10 11:18:05;;;;;;;0.00;0.00;;;;;;;;;;7398836;19;20169;-50
2024/04/10 11:20:32;;;;;;;0.00;0.00;;;;;;;;;;7398463;19;20481;-49
2024/04/10 11:23:05;;;;;;;0.00;0.00;;;;;;;;;;7399867;19;20142;-50
2024/04/10 11:25:31;;;;;;;0.00;0.00;;;;;;;;;;7399377;19;20632;-49
2024/04/10 11:27:58;;;;;;;0.00;0.00;;;;;;;;;;7398546;19;20134;-49
2024/04/10 11:30:27;;;;;;;0.00;0.00;;;;;;;;;;7396404;19;20153;-50
2024/04/10 11:32:56;;;;;;;0.00;0.00;;;;;;;;;;7397777;19;20149;-50
2024/04/10 11:35:22;;;;;;;0.00;0.00;;;;;;;;;;7399230;19;20140;-50
2024/04/10 11:37:52;;;;;;;0.00;0.00;;;;;;;;;;7399570;19;20134;-52
2024/04/10 11:40:19;;;;;;;0.00;0.00;;;;;;;;;;7399178;19;20134;-53
2024/04/10 11:42:45;;;;;;;0.00;0.00;;;;;;;;;;7399522;19;20560;-54
2024/04/10 11:45:11;;;;;;;0.00;0.00;;;;;;;;;;7399002;19;20138;-53
2024/04/10 11:47:38;;;;;;;0.00;0.00;;;;;;;;;;7396750;19;20196;-52
2024/04/10 11:50:04;;;;;;;0.00;0.00;;;;;;;;;;7396165;19;20221;-54
2024/04/10 11:52:31;;;;;;;0.00;0.00;;;;;;;;;;7398044;19;20142;-53
2024/04/10 11:55:00;;;;;;;0.00;0.00;;;;;;;;;;7397150;19;20161;-54
2024/04/10 11:57:26;;;;;;;0.00;0.00;;;;;;;;;;7398563;19;20138;-55
2024/04/10 11:59:53;;;;;;;0.00;0.00;;;;;;;;;;7399195;19;20138;-54
2024/04/10 12:02:19;;;;;;;0.00;0.00;;;;;;;;;;7396816;19;20149;-55
2024/04/10 12:04:46;;;;;;;0.00;0.00;;;;;;;;;;7397354;19;20230;-56
2024/04/10 12:07:12;;;;;;;0.00;0.00;;;;;;;;;;7397091;19;20210;-57
2024/04/10 12:09:39;;;;;;;0.00;0.00;;;;;;;;;;7397404;19;20607;-55
2024/04/10 12:12:06;;;;;;;0.00;0.00;;;;;;;;;;7398282;19;20510;-55
2024/04/10 12:14:32;;;;;;;0.00;0.00;;;;;;;;;;7398112;19;20126;-55
2024/04/10 12:16:58;;;;;;;0.00;0.00;;;;;;;;;;7397879;19;20179;-56
2024/04/10 12:19:27;;;;;;;0.00;0.00;;;;;;;;;;7398274;19;20150;-54
2024/04/10 12:21:53;;;;;;;0.00;0.00;;;;;;;;;;7397948;19;20145;-55
2024/04/10 12:24:20;;;;;;;0.00;0.00;;;;;;;;;;7398297;19;20130;-55
2024/04/10 12:26:46;;;;;;;0.03;0.03;;;;;;;;;;7398060;19;20158;-55
2024/04/10 12:29:12;;;;;;;0.00;0.00;;;;;;;;;;7395142;19;20138;-54
2024/04/10 12:31:38;;;;;;;0.00;0.00;;;;;;;;;;7397808;19;20134;-53
2024/04/10 12:34:08;;;;;;;0.00;0.00;;;;;;;;;;7397110;19;20189;-54
2024/04/10 12:39:20;;;;;;;0.00;0.00;;;;;;;;;;7397666;19;20129;-53
2024/04/10 12:41:49;;;;;;;0.00;0.00;;;;;;;;;;7396907;19;20134;-53
2024/04/10 12:44:24;;;;;;;0.00;0.00;;;;;;;;;;7396574;19;20146;-53
2024/04/10 12:46:53;;;;;;;0.00;0.00;;;;;;;;;;7396183;19;20134;-56
2024/04/10 12:49:20;;;;;;;0.00;0.00;;;;;;;;;;7394490;19;20511;-55
2024/04/10 12:51:46;;;;;;;0.00;0.00;;;;;;;;;;7396897;19;20467;-54
2024/04/10 12:54:12;;;;;;;0.00;0.00;;;;;;;;;;7396646;19;20145;-55
2024/04/10 12:56:39;;;;;;;0.00;0.00;;;;;;;;;;7395475;19;20212;-55
2024/04/10 12:59:05;;;;;;;0.00;0.00;;;;;;;;;;7394402;19;20138;-54
2024/04/10 13:01:31;;;;;;;0.00;0.00;;;;;;;;;;7396699;19;20130;-53
2024/04/10 13:03:57;;;;;;;0.00;0.00;;;;;;;;;;7396294;19;20140;-55
2024/04/10 13:06:26;;;;;;;0.00;0.00;;;;;;;;;;7392530;19;20171;-57
2024/04/10 13:08:52;;;;;;;0.00;0.00;;;;;;;;;;7395449;19;20130;-55
2024/04/10 13:11:19;;;;;;;0.00;0.00;;;;;;;;;;7396224;19;20198;-52
2024/04/10 13:13:45;;;;;;;0.00;0.00;;;;;;;;;;7395950;19;20149;-53
2024/04/10 13:16:12;;;;;;;0.00;0.00;;;;;;;;;;7396382;19;20616;-54
2024/04/10 13:18:38;;;;;;;0.00;0.00;;;;;;;;;;7395383;19;20497;-53
2024/04/10 13:21:04;;;;;;;0.00;0.00;;;;;;;;;;7395988;19;20149;-52
2024/04/10 13:23:42;;;;;;;0.00;0.00;;;;;;;;;;7394759;19;20138;-55
2024/04/10 13:26:10;;;;;;;0.00;0.00;;;;;;;;;;7395181;19;20129;-52
2024/04/10 13:28:38;;;;;;;0.00;0.00;;;;;;;;;;7395314;19;20141;-53
2024/04/10 13:31:10;;;;;;;0.00;0.00;;;;;;;;;;7393778;19;20201;-54
2024/04/10 13:33:37;;;;;;;0.00;0.00;;;;;;;;;;7395283;19;20506;-54
2024/04/10 13:36:22;;;;;;;0.00;0.00;;;;;;;;;;7395341;19;20134;-53
2024/04/10 13:38:51;;;;;;;0.00;0.00;;;;;;;;;;7395064;19;20209;-53
2024/04/10 13:41:21;;;;;;;0.00;0.00;;;;;;;;;;7393291;19;20135;-53
2024/04/10 13:43:50;;;;;;;0.00;0.00;;;;;;;;;;7394990;19;20134;-52
2024/04/10 13:46:16;;;;;;;0.00;0.00;;;;;;;;;;7394697;19;20133;-53
2024/04/10 13:48:44;;;;;;;0.00;0.00;;;;;;;;;;7393361;19;20181;-53
2024/04/10 13:51:16;;;;;;;0.00;0.00;;;;;;;;;;7394182;19;20164;-52
2024/04/10 13:53:42;;;;;;;0.00;0.00;;;;;;;;;;7394853;19;20145;-52
2024/04/10 13:56:09;;;;;;;0.00;0.00;;;;;;;;;;7394822;19;20487;-53
2024/04/10 13:58:36;;;;;;;0.00;0.00;;;;;;;;;;7394783;19;20125;-52
2024/04/10 14:01:12;;;;;;;0.00;0.00;;;;;;;;;;7395060;19;20161;-52
2024/04/10 14:03:42;;;;;;;0.00;0.00;;;;;;;;;;7394557;19;20462;-53
2024/04/10 14:06:08;;;;;;;0.00;0.00;;;;;;;;;;7394224;19;20130;-52
2024/04/10 14:08:34;;;;;;;0.00;0.00;;;;;;;;;;7393672;19;20166;-53
2024/04/10 14:11:01;;;;;;;0.00;0.00;;;;;;;;;;7393457;19;20194;-53
2024/04/10 14:13:28;;;;;;;0.00;0.00;;;;;;;;;;7393612;19;20141;-52
2024/04/10 14:15:55;;;;;;;0.00;0.00;;;;;;;;;;7394419;19;20472;-52
2024/04/10 14:18:21;;;;;;;0.00;0.00;;;;;;;;;;7399099;19;20153;-53
2024/04/10 14:20:47;;;;;;;0.00;0.00;;;;;;;;;;7401503;19;20141;-54
2024/04/10 14:23:16;;;;;;;0.00;0.00;;;;;;;;;;7402270;19;20138;-53
2024/04/10 14:25:43;;;;;;;0.00;0.00;;;;;;;;;;7401735;19;20134;-52
2024/04/10 14:28:09;;;;;;;0.00;0.00;;;;;;;;;;7401959;19;20233;-52
2024/04/10 14:30:35;;;;;;;0.00;0.00;;;;;;;;;;7399335;19;20593;-53
2024/04/10 14:33:01;;;;;;;0.00;0.00;;;;;;;;;;7400206;19;20134;-54
2024/04/10 14:35:27;;;;;;;0.00;0.00;;;;;;;;;;7401550;19;20507;-53
2024/04/10 14:37:53;;;;;;;0.00;0.00;;;;;;;;;;7401257;19;20151;-51
2024/04/10 14:40:19;;;;;;;0.00;0.00;;;;;;;;;;7400664;19;20614;-51
2024/04/10 14:42:45;;;;;;;0.00;0.00;;;;;;;;;;7400797;19;20190;-53
2024/04/10 14:45:12;;;;;;;0.00;0.00;;;;;;;;;;7400180;19;20138;-52
2024/04/10 14:47:38;;;;;;;0.00;0.00;;;;;;;;;;7400403;19;20202;-52